sensor_id;sensor_type;location;lat;lon;timestamp;pressure;altitude;pressure_sealevel;temperature;humidity
4576;BME280;2300;51.874;8.430;2023-03-21T00:01:37;100869.53;;;8.86;87.37
4576;BME280;2300;51.874;8.430;2023-03-21T00:04:04;100878.31;;;8.94;86.90
4576;BME280;2300;51.874;8.430;2023-03-21T00:06:30;100874.56;;;8.89;86.86
4576;BME280;2300;51.874;8.430;2023-03-21T00:08:57;100871.63;;;8.84;86.89
4576;BME280;2300;51.874;8.430;2023-03-21T00:11:24;100865.88;;;8.92;87.01
4576;BME280;2300;51.874;8.430;2023-03-21T00:13:50;100867.94;;;9.03;86.82
4576;BME280;2300;51.874;8.430;2023-03-21T00:16:18;100868.59;;;8.98;86.44
4576;BME280;2300;51.874;8.430;2023-03-21T00:18:47;100870.75;;;8.96;86.74
4576;BME280;2300;51.874;8.430;2023-03-21T00:21:18;100867.28;;;9.07;86.69
4576;BME280;2300;51.874;8.430;2023-03-21T00:23:45;100874.66;;;9.07;86.09
4576;BME280;2300;51.874;8.430;2023-03-21T00:26:13;100870.28;;;9.06;86.26
4576;BME280;2300;51.874;8.430;2023-03-21T00:28:41;100865.63;;;9.06;86.53
4576;BME280;2300;51.874;8.430;2023-03-21T00:31:08;100866.44;;;9.07;86.70
4576;BME280;2300;51.874;8.430;2023-03-21T00:33:36;100861.88;;;9.01;86.94
4576;BME280;2300;51.874;8.430;2023-03-21T00:36:04;100854.13;;;8.91;87.25
4576;BME280;2300;51.874;8.430;2023-03-21T00:38:31;100852.63;;;8.95;87.51
4576;BME280;2300;51.874;8.430;2023-03-21T00:40:58;100856.88;;;8.91;87.87
4576;BME280;2300;51.874;8.430;2023-03-21T00:43:24;100856.03;;;8.91;88.29
4576;BME280;2300;51.874;8.430;2023-03-21T00:45:55;100853.09;;;8.86;89.04
4576;BME280;2300;51.874;8.430;2023-03-21T00:48:22;100852.84;;;8.87;89.66
4576;BME280;2300;51.874;8.430;2023-03-21T00:50:51;100848.69;;;8.71;91.04
4576;BME280;2300;51.874;8.430;2023-03-21T00:53:19;100846.41;;;8.68;92.33
4576;BME280;2300;51.874;8.430;2023-03-21T00:55:46;100850.59;;;8.71;92.29
4576;BME280;2300;51.874;8.430;2023-03-21T00:58:12;100849.56;;;8.65;92.47
4576;BME280;2300;51.874;8.430;2023-03-21T01:00:39;100837.53;;;8.73;93.20
4576;BME280;2300;51.874;8.430;2023-03-21T01:03:07;100834.63;;;8.68;93.58
4576;BME280;2300;51.874;8.430;2023-03-21T01:05:38;100827.88;;;8.57;94.16
4576;BME280;2300;51.874;8.430;2023-03-21T01:08:25;100823.03;;;8.66;94.60
4576;BME280;2300;51.874;8.430;2023-03-21T01:10:52;100830.81;;;8.69;94.76
4576;BME280;2300;51.874;8.430;2023-03-21T01:13:21;100824.50;;;8.68;94.54
4576;BME280;2300;51.874;8.430;2023-03-21T01:15:49;100821.09;;;8.80;94.91
4576;BME280;2300;51.874;8.430;2023-03-21T01:18:19;100830.19;;;8.73;93.97
4576;BME280;2300;51.874;8.430;2023-03-21T01:20:46;100820.28;;;8.72;93.79
4576;BME280;2300;51.874;8.430;2023-03-21T01:23:14;100824.63;;;8.87;94.01
4576;BME280;2300;51.874;8.430;2023-03-21T01:25:42;100821.28;;;8.85;93.35
4576;BME280;2300;51.874;8.430;2023-03-21T01:28:09;100817.22;;;8.94;93.33
4576;BME280;2300;51.874;8.430;2023-03-21T01:30:36;100810.94;;;8.87;93.15
4576;BME280;2300;51.874;8.430;2023-03-21T01:33:02;100817.22;;;8.94;93.37
4576;BME280;2300;51.874;8.430;2023-03-21T01:35:29;100818.03;;;9.01;93.43
4576;BME280;2300;51.874;8.430;2023-03-21T01:37:55;100812.97;;;8.98;92.77
4576;BME280;2300;51.874;8.430;2023-03-21T01:40:24;100811.09;;;8.98;92.08
4576;BME280;2300;51.874;8.430;2023-03-21T01:42:52;100813.44;;;8.95;92.61
4576;BME280;2300;51.874;8.430;2023-03-21T01:48:23;100806.91;;;8.96;92.47
4576;BME280;2300;51.874;8.430;2023-03-21T01:50:52;100818.03;;;9.01;91.41
4576;BME280;2300;51.874;8.430;2023-03-21T01:53:19;100803.72;;;8.99;91.18
4576;BME280;2300;51.874;8.430;2023-03-21T01:55:47;100810.44;;;9.03;91.88
4576;BME280;2300;51.874;8.430;2023-03-21T01:58:17;100802.66;;;9.00;91.40
4576;BME280;2300;51.874;8.430;2023-03-21T02:00:44;100806.28;;;8.94;91.33
4576;BME280;2300;51.874;8.430;2023-03-21T02:03:12;100802.00;;;9.04;90.49
4576;BME280;2300;51.874;8.430;2023-03-21T02:05:49;100795.69;;;9.04;90.81
4576;BME280;2300;51.874;8.430;2023-03-21T02:08:17;100792.75;;;8.99;90.21
4576;BME280;2300;51.874;8.430;2023-03-21T02:10:46;100788.47;;;9.09;89.76
4576;BME280;2300;51.874;8.430;2023-03-21T02:13:13;100787.22;;;9.12;89.57
4576;BME280;2300;51.874;8.430;2023-03-21T02:15:45;100784.22;;;9.13;89.44
4576;BME280;2300;51.874;8.430;2023-03-21T02:18:20;100788.16;;;9.24;89.55
4576;BME280;2300;51.874;8.430;2023-03-21T02:21:10;100774.56;;;9.11;89.46
4576;BME280;2300;51.874;8.430;2023-03-21T02:23:56;100775.34;;;9.18;89.34
4576;BME280;2300;51.874;8.430;2023-03-21T02:26:45;100773.69;;;9.17;89.45
4576;BME280;2300;51.874;8.430;2023-03-21T02:29:34;100784.38;;;9.25;89.11
4576;BME280;2300;51.874;8.430;2023-03-21T02:32:17;100765.84;;;9.21;88.64
4576;BME280;2300;51.874;8.430;2023-03-21T02:35:03;100771.31;;;9.27;88.28
4576;BME280;2300;51.874;8.430;2023-03-21T02:37:38;100768.94;;;9.31;87.61
4576;BME280;2300;51.874;8.430;2023-03-21T02:40:09;100768.09;;;9.30;88.09
4576;BME280;2300;51.874;8.430;2023-03-21T02:42:48;100767.94;;;9.25;88.22
4576;BME280;2300;51.874;8.430;2023-03-21T02:45:21;100761.75;;;9.36;88.41
4576;BME280;2300;51.874;8.430;2023-03-21T02:47:52;100773.19;;;9.27;87.85
4576;BME280;2300;51.874;8.430;2023-03-21T02:50:23;100760.25;;;9.34;87.14
4576;BME280;2300;51.874;8.430;2023-03-21T02:52:53;100755.94;;;9.20;87.08
4576;BME280;2300;51.874;8.430;2023-03-21T02:55:23;100763.09;;;9.27;87.43
4576;BME280;2300;51.874;8.430;2023-03-21T02:57:51;100760.00;;;9.17;87.18
4576;BME280;2300;51.874;8.430;2023-03-21T03:00:20;100756.31;;;9.30;87.01
4576;BME280;2300;51.874;8.430;2023-03-21T03:02:48;100756.97;;;9.25;87.09
4576;BME280;2300;51.874;8.430;2023-03-21T03:05:16;100759.50;;;9.27;86.65
4576;BME280;2300;51.874;8.430;2023-03-21T03:07:55;100747.53;;;9.21;86.63
4576;BME280;2300;51.874;8.430;2023-03-21T03:10:31;100750.44;;;9.26;86.38
4576;BME280;2300;51.874;8.430;2023-03-21T03:13:10;100745.78;;;9.27;86.66
4576;BME280;2300;51.874;8.430;2023-03-21T03:15:49;100742.59;;;9.30;86.60
4576;BME280;2300;51.874;8.430;2023-03-21T03:18:23;100753.78;;;9.28;86.51
4576;BME280;2300;51.874;8.430;2023-03-21T03:20:56;100751.88;;;9.29;87.00
4576;BME280;2300;51.874;8.430;2023-03-21T03:23:32;100742.63;;;9.23;86.07
4576;BME280;2300;51.874;8.430;2023-03-21T03:26:03;100746.56;;;9.34;86.16
4576;BME280;2300;51.874;8.430;2023-03-21T03:28:34;100750.78;;;9.36;85.81
4576;BME280;2300;51.874;8.430;2023-03-21T03:31:03;100749.97;;;9.29;86.17
4576;BME280;2300;51.874;8.430;2023-03-21T03:33:31;100751.44;;;9.32;86.76
4576;BME280;2300;51.874;8.430;2023-03-21T03:36:00;100749.38;;;9.27;86.60
4576;BME280;2300;51.874;8.430;2023-03-21T03:38:30;100748.38;;;9.22;86.47
4576;BME280;2300;51.874;8.430;2023-03-21T03:41:01;100743.91;;;9.27;86.54
4576;BME280;2300;51.874;8.430;2023-03-21T03:43:36;100743.22;;;9.32;85.69
4576;BME280;2300;51.874;8.430;2023-03-21T03:46:10;100743.16;;;9.38;85.73
4576;BME280;2300;51.874;8.430;2023-03-21T03:48:41;100738.97;;;9.36;86.19
4576;BME280;2300;51.874;8.430;2023-03-21T03:51:15;100733.94;;;9.33;85.86
4576;BME280;2300;51.874;8.430;2023-03-21T03:53:51;100731.25;;;9.26;86.12
4576;BME280;2300;51.874;8.430;2023-03-21T03:56:19;100725.47;;;9.34;85.58
4576;BME280;2300;51.874;8.430;2023-03-21T03:58:47;100722.19;;;9.26;85.95
4576;BME280;2300;51.874;8.430;2023-03-21T04:01:14;100726.38;;;9.28;85.35
4576;BME280;2300;51.874;8.430;2023-03-21T04:03:44;100728.50;;;9.26;85.59
4576;BME280;2300;51.874;8.430;2023-03-21T04:06:11;100728.34;;;9.21;86.06
4576;BME280;2300;51.874;8.430;2023-03-21T04:08:38;100719.66;;;9.24;85.73
4576;BME280;2300;51.874;8.430;2023-03-21T04:11:06;100728.38;;;9.14;86.55
4576;BME280;2300;51.874;8.430;2023-03-21T04:13:33;100702.09;;;9.07;85.89
4576;BME280;2300;51.874;8.430;2023-03-21T04:15:59;100713.28;;;9.05;85.82
4576;BME280;2300;51.874;8.430;2023-03-21T04:18:26;100716.16;;;9.17;86.83
4576;BME280;2300;51.874;8.430;2023-03-21T04:20:53;100713.41;;;9.17;86.47
4576;BME280;2300;51.874;8.430;2023-03-21T04:23:20;100709.00;;;9.16;85.92
4576;BME280;2300;51.874;8.430;2023-03-21T04:25:47;100720.28;;;9.26;86.11
4576;BME280;2300;51.874;8.430;2023-03-21T04:28:16;100711.59;;;9.29;85.72
4576;BME280;2300;51.874;8.430;2023-03-21T04:30:43;100702.78;;;9.27;85.33
4576;BME280;2300;51.874;8.430;2023-03-21T04:33:10;100711.94;;;9.39;85.52
4576;BME280;2300;51.874;8.430;2023-03-21T04:35:36;100711.94;;;9.39;84.88
4576;BME280;2300;51.874;8.430;2023-03-21T04:38:03;100698.59;;;9.25;85.62
4576;BME280;2300;51.874;8.430;2023-03-21T04:40:29;100717.38;;;9.46;85.54
4576;BME280;2300;51.874;8.430;2023-03-21T04:42:56;100715.25;;;9.48;85.00
4576;BME280;2300;51.874;8.430;2023-03-21T04:45:26;100708.09;;;9.47;85.59
4576;BME280;2300;51.874;8.430;2023-03-21T04:47:53;100701.59;;;9.41;85.55
4576;BME280;2300;51.874;8.430;2023-03-21T04:50:20;100698.50;;;9.38;85.65
4576;BME280;2300;51.874;8.430;2023-03-21T04:52:47;100697.41;;;9.39;85.77
4576;BME280;2300;51.874;8.430;2023-03-21T04:55:13;100700.66;;;9.29;85.86
4576;BME280;2300;51.874;8.430;2023-03-21T04:57:40;100701.81;;;9.40;86.46
4576;BME280;2300;51.874;8.430;2023-03-21T05:00:08;100699.59;;;9.30;86.31
4576;BME280;2300;51.874;8.430;2023-03-21T05:02:37;100697.84;;;9.36;86.42
4576;BME280;2300;51.874;8.430;2023-03-21T05:05:04;100694.91;;;9.37;85.90
4576;BME280;2300;51.874;8.430;2023-03-21T05:07:35;100695.16;;;9.29;86.74
4576;BME280;2300;51.874;8.430;2023-03-21T05:10:02;100699.44;;;9.25;86.52
4576;BME280;2300;51.874;8.430;2023-03-21T05:12:28;100698.19;;;9.21;86.97
4576;BME280;2300;51.874;8.430;2023-03-21T05:14:55;100693.94;;;9.25;86.82
4576;BME280;2300;51.874;8.430;2023-03-21T05:17:21;100693.78;;;9.20;86.97
4576;BME280;2300;51.874;8.430;2023-03-21T05:19:50;100688.25;;;9.27;86.64
4576;BME280;2300;51.874;8.430;2023-03-21T05:22:18;100683.78;;;9.32;86.53
4576;BME280;2300;51.874;8.430;2023-03-21T05:24:45;100666.88;;;9.10;86.55
4576;BME280;2300;51.874;8.430;2023-03-21T05:27:14;100694.50;;;9.34;85.89
4576;BME280;2300;51.874;8.430;2023-03-21T05:29:59;100699.75;;;9.35;85.82
4576;BME280;2300;51.874;8.430;2023-03-21T05:32:26;100693.22;;;9.36;86.26
4576;BME280;2300;51.874;8.430;2023-03-21T05:34:53;100696.72;;;9.43;86.87
4576;BME280;2300;51.874;8.430;2023-03-21T05:37:20;100699.31;;;9.38;86.24
4576;BME280;2300;51.874;8.430;2023-03-21T05:39:47;100694.22;;;9.42;86.66
4576;BME280;2300;51.874;8.430;2023-03-21T05:42:13;100690.19;;;9.44;86.39
4576;BME280;2300;51.874;8.430;2023-03-21T05:44:40;100694.56;;;9.52;86.37
4576;BME280;2300;51.874;8.430;2023-03-21T05:47:07;100695.22;;;9.47;86.79
4576;BME280;2300;51.874;8.430;2023-03-21T05:49:33;100694.94;;;9.55;85.94
4576;BME280;2300;51.874;8.430;2023-03-21T05:52:01;100689.81;;;9.59;85.90
4576;BME280;2300;51.874;8.430;2023-03-21T05:54:27;100693.41;;;9.59;85.66
4576;BME280;2300;51.874;8.430;2023-03-21T05:56:54;100694.94;;;9.55;85.88
4576;BME280;2300;51.874;8.430;2023-03-21T05:59:20;100697.00;;;9.60;86.36
4576;BME280;2300;51.874;8.430;2023-03-21T06:01:47;100698.50;;;9.56;85.95
4576;BME280;2300;51.874;8.430;2023-03-21T06:04:13;100698.16;;;9.71;85.65
4576;BME280;2300;51.874;8.430;2023-03-21T06:06:40;100695.25;;;9.66;85.74
4576;BME280;2300;51.874;8.430;2023-03-21T06:09:08;100700.00;;;9.77;85.99
4576;BME280;2300;51.874;8.430;2023-03-21T06:11:36;100689.75;;;9.66;85.84
4576;BME280;2300;51.874;8.430;2023-03-21T06:14:03;100695.41;;;9.71;86.04
4576;BME280;2300;51.874;8.430;2023-03-21T06:16:29;100698.88;;;9.84;85.07
4576;BME280;2300;51.874;8.430;2023-03-21T06:18:56;100684.28;;;9.66;85.47
4576;BME280;2300;51.874;8.430;2023-03-21T06:21:22;100695.13;;;9.79;85.98
4576;BME280;2300;51.874;8.430;2023-03-21T06:23:49;100700.63;;;9.79;86.14
4576;BME280;2300;51.874;8.430;2023-03-21T06:26:18;100698.47;;;9.81;85.52
4576;BME280;2300;51.874;8.430;2023-03-21T06:28:47;100697.56;;;9.69;85.36
4576;BME280;2300;51.874;8.430;2023-03-21T06:31:13;100698.56;;;9.74;85.53
4576;BME280;2300;51.874;8.430;2023-03-21T06:33:40;100703.63;;;9.71;85.60
4576;BME280;2300;51.874;8.430;2023-03-21T06:36:07;100695.13;;;9.79;85.49
4576;BME280;2300;51.874;8.430;2023-03-21T06:38:34;100700.16;;;9.82;85.50
4576;BME280;2300;51.874;8.430;2023-03-21T06:41:02;100696.88;;;9.73;85.69
4576;BME280;2300;51.874;8.430;2023-03-21T06:43:30;100695.88;;;9.86;85.83
4576;BME280;2300;51.874;8.430;2023-03-21T06:45:57;100702.91;;;10.00;85.37
4576;BME280;2300;51.874;8.430;2023-03-21T06:48:25;100697.88;;;9.97;84.56
4576;BME280;2300;51.874;8.430;2023-03-21T06:50:52;100700.63;;;10.15;84.06
4576;BME280;2300;51.874;8.430;2023-03-21T06:53:22;100698.56;;;9.92;84.18
4576;BME280;2300;51.874;8.430;2023-03-21T06:55:51;100698.47;;;10.17;84.31
4576;BME280;2300;51.874;8.430;2023-03-21T06:58:19;100701.53;;;10.09;84.09
4576;BME280;2300;51.874;8.430;2023-03-21T07:00:47;100670.75;;;9.89;83.75
4576;BME280;2300;51.874;8.430;2023-03-21T07:03:14;100708.25;;;10.13;83.29
4576;BME280;2300;51.874;8.430;2023-03-21T07:05:41;100706.88;;;10.04;83.38
4576;BME280;2300;51.874;8.430;2023-03-21T07:08:08;100702.13;;;10.11;83.28
4576;BME280;2300;51.874;8.430;2023-03-21T07:10:37;100699.56;;;9.98;83.29
4576;BME280;2300;51.874;8.430;2023-03-21T07:13:04;100698.50;;;9.99;83.48
4576;BME280;2300;51.874;8.430;2023-03-21T07:15:30;100701.22;;;10.17;83.67
4576;BME280;2300;51.874;8.430;2023-03-21T07:17:59;100713.59;;;10.26;83.26
4576;BME280;2300;51.874;8.430;2023-03-21T07:20:26;100707.19;;;10.32;82.83
4576;BME280;2300;51.874;8.430;2023-03-21T07:22:53;100708.88;;;10.33;82.35
4576;BME280;2300;51.874;8.430;2023-03-21T07:25:19;100707.56;;;10.36;82.10
4576;BME280;2300;51.874;8.430;2023-03-21T07:27:46;100704.00;;;10.35;82.17
4576;BME280;2300;51.874;8.430;2023-03-21T07:30:12;100711.75;;;10.38;82.67
4576;BME280;2300;51.874;8.430;2023-03-21T07:32:39;100704.50;;;10.44;82.29
4576;BME280;2300;51.874;8.430;2023-03-21T07:35:10;100704.28;;;10.46;82.27
4576;BME280;2300;51.874;8.430;2023-03-21T07:37:37;100708.25;;;10.31;81.77
4576;BME280;2300;51.874;8.430;2023-03-21T07:40:04;100680.31;;;10.16;81.76
4576;BME280;2300;51.874;8.430;2023-03-21T07:42:34;100716.63;;;10.36;82.13
4576;BME280;2300;51.874;8.430;2023-03-21T07:45:01;100711.00;;;10.31;82.31
4576;BME280;2300;51.874;8.430;2023-03-21T07:47:29;100708.03;;;10.33;82.39
4576;BME280;2300;51.874;8.430;2023-03-21T07:49:55;100722.72;;;10.38;82.35
4576;BME280;2300;51.874;8.430;2023-03-21T07:52:24;100700.16;;;10.18;82.42
4576;BME280;2300;51.874;8.430;2023-03-21T07:54:50;100709.53;;;10.47;83.20
4576;BME280;2300;51.874;8.430;2023-03-21T07:57:17;100714.28;;;10.40;83.15
4576;BME280;2300;51.874;8.430;2023-03-21T07:59:44;100713.16;;;10.29;83.91
4576;BME280;2300;51.874;8.430;2023-03-21T08:02:12;100717.09;;;10.15;84.70
4576;BME280;2300;51.874;8.430;2023-03-21T08:04:39;100715.00;;;10.11;86.02
4576;BME280;2300;51.874;8.430;2023-03-21T08:07:06;100697.94;;;9.90;87.73
4576;BME280;2300;51.874;8.430;2023-03-21T08:09:34;100726.91;;;10.05;88.62
4576;BME280;2300;51.874;8.430;2023-03-21T08:12:01;100712.75;;;9.89;90.98
4576;BME280;2300;51.874;8.430;2023-03-21T08:14:27;100721.03;;;10.01;91.57
4576;BME280;2300;51.874;8.430;2023-03-21T08:16:54;100709.75;;;9.91;92.05
4576;BME280;2300;51.874;8.430;2023-03-21T08:19:20;100714.03;;;10.05;92.60
4576;BME280;2300;51.874;8.430;2023-03-21T08:21:47;100709.16;;;9.89;92.08
4576;BME280;2300;51.874;8.430;2023-03-21T08:24:15;100715.00;;;10.11;93.96
4576;BME280;2300;51.874;8.430;2023-03-21T08:26:43;100720.75;;;10.27;93.65
4576;BME280;2300;51.874;8.430;2023-03-21T08:29:10;100720.28;;;10.49;92.84
4576;BME280;2300;51.874;8.430;2023-03-21T08:31:38;100715.06;;;10.59;92.55
4576;BME280;2300;51.874;8.430;2023-03-21T08:34:04;100710.06;;;10.37;91.86
4576;BME280;2300;51.874;8.430;2023-03-21T08:36:31;100720.38;;;10.24;93.12
4576;BME280;2300;51.874;8.430;2023-03-21T08:38:58;100723.66;;;10.32;92.85
4576;BME280;2300;51.874;8.430;2023-03-21T08:41:29;100718.47;;;10.24;93.48
4576;BME280;2300;51.874;8.430;2023-03-21T08:43:57;100719.16;;;10.20;93.96
4576;BME280;2300;51.874;8.430;2023-03-21T08:46:23;100721.25;;;10.18;94.94
4576;BME280;2300;51.874;8.430;2023-03-21T08:48:50;100720.81;;;10.02;94.82
4576;BME280;2300;51.874;8.430;2023-03-21T08:51:17;100719.81;;;9.97;95.81
4576;BME280;2300;51.874;8.430;2023-03-21T08:53:43;100719.28;;;9.88;95.73
4576;BME280;2300;51.874;8.430;2023-03-21T08:56:10;100716.59;;;9.82;96.31
4576;BME280;2300;51.874;8.430;2023-03-21T08:58:36;100710.44;;;9.68;96.49
4576;BME280;2300;51.874;8.430;2023-03-21T09:01:05;100707.56;;;9.56;97.78
4576;BME280;2300;51.874;8.430;2023-03-21T09:03:35;100714.16;;;9.74;98.68
4576;BME280;2300;51.874;8.430;2023-03-21T09:06:02;100719.50;;;9.87;98.51
4576;BME280;2300;51.874;8.430;2023-03-21T09:08:28;100711.44;;;9.74;98.46
4576;BME280;2300;51.874;8.430;2023-03-21T09:10:56;100712.84;;;9.76;98.70
4576;BME280;2300;51.874;8.430;2023-03-21T09:13:23;100719.72;;;9.85;98.65
4576;BME280;2300;51.874;8.430;2023-03-21T09:15:49;100715.69;;;10.06;99.63
4576;BME280;2300;51.874;8.430;2023-03-21T09:18:18;100719.69;;;10.10;99.02
4576;BME280;2300;51.874;8.430;2023-03-21T09:20:47;100720.75;;;10.09;98.95
4576;BME280;2300;51.874;8.430;2023-03-21T09:23:14;100692.69;;;10.07;98.62
4576;BME280;2300;51.874;8.430;2023-03-21T09:25:44;100718.09;;;10.21;98.66
4576;BME280;2300;51.874;8.430;2023-03-21T09:28:10;100717.56;;;10.30;99.39
4576;BME280;2300;51.874;8.430;2023-03-21T09:30:37;100718.16;;;10.32;98.31
4576;BME280;2300;51.874;8.430;2023-03-21T09:33:05;100714.28;;;10.40;98.77
4576;BME280;2300;51.874;8.430;2023-03-21T09:35:35;100722.59;;;10.33;98.43
4576;BME280;2300;51.874;8.430;2023-03-21T09:38:01;100705.72;;;10.12;98.31
4576;BME280;2300;51.874;8.430;2023-03-21T09:40:41;100728.69;;;10.35;98.92
4576;BME280;2300;51.874;8.430;2023-03-21T09:43:20;100715.56;;;10.19;99.91
4576;BME280;2300;51.874;8.430;2023-03-21T09:45:53;100711.38;;;10.35;100.00
4576;BME280;2300;51.874;8.430;2023-03-21T09:48:30;100719.84;;;10.33;99.33
4576;BME280;2300;51.874;8.430;2023-03-21T09:51:01;100713.72;;;10.13;99.61
4576;BME280;2300;51.874;8.430;2023-03-21T09:53:33;100708.50;;;10.30;100.00
4576;BME280;2300;51.874;8.430;2023-03-21T09:56:02;100702.44;;;10.03;100.00
4576;BME280;2300;51.874;8.430;2023-03-21T09:58:32;100713.56;;;10.08;100.00
4576;BME280;2300;51.874;8.430;2023-03-21T10:01:05;100710.34;;;10.11;100.00
4576;BME280;2300;51.874;8.430;2023-03-21T10:03:34;100712.72;;;10.08;100.00
4576;BME280;2300;51.874;8.430;2023-03-21T10:06:05;100713.34;;;10.10;100.00
4576;BME280;2300;51.874;8.430;2023-03-21T10:08:39;100708.72;;;10.10;100.00
4576;BME280;2300;51.874;8.430;2023-03-21T10:11:11;100708.38;;;10.36;100.00
4576;BME280;2300;51.874;8.430;2023-03-21T10:13:41;100702.91;;;10.18;100.00
4576;BME280;2300;51.874;8.430;2023-03-21T10:16:12;100706.13;;;10.15;100.00
4576;BME280;2300;51.874;8.430;2023-03-21T10:18:40;100699.28;;;10.24;100.00
4576;BME280;2300;51.874;8.430;2023-03-21T10:21:13;100697.72;;;10.10;100.00
4576;BME280;2300;51.874;8.430;2023-03-21T10:23:42;100698.31;;;10.12;100.00
4576;BME280;2300;51.874;8.430;2023-03-21T10:26:10;100694.16;;;10.28;100.00
4576;BME280;2300;51.874;8.430;2023-03-21T10:28:39;100685.34;;;10.26;100.00
4576;BME280;2300;51.874;8.430;2023-03-21T10:31:08;100692.53;;;10.38;100.00
4576;BME280;2300;51.874;8.430;2023-03-21T10:33:38;100696.50;;;10.42;100.00
4576;BME280;2300;51.874;8.430;2023-03-21T10:36:08;100686.03;;;10.51;100.00
4576;BME280;2300;51.874;8.430;2023-03-21T10:38:38;100689.44;;;10.65;100.00
4576;BME280;2300;51.874;8.430;2023-03-21T10:41:06;100687.81;;;10.75;100.00
4576;BME280;2300;51.874;8.430;2023-03-21T10:43:35;100684.00;;;10.76;99.19
4576;BME280;2300;51.874;8.430;2023-03-21T10:46:08;100676.16;;;10.92;98.69
4576;BME280;2300;51.874;8.430;2023-03-21T10:48:38;100681.38;;;10.81;98.49
4576;BME280;2300;51.874;8.430;2023-03-21T10:51:07;100673.16;;;10.52;98.44
4576;BME280;2300;51.874;8.430;2023-03-21T10:53:38;100677.81;;;10.51;98.17
4576;BME280;2300;51.874;8.430;2023-03-21T10:56:08;100670.44;;;10.33;99.36
4576;BME280;2300;51.874;8.430;2023-03-21T10:58:39;100675.69;;;10.35;100.00
4576;BME280;2300;51.874;8.430;2023-03-21T11:01:10;100669.50;;;10.39;100.00
4576;BME280;2300;51.874;8.430;2023-03-21T11:03:41;100671.47;;;10.51;100.00
4576;BME280;2300;51.874;8.430;2023-03-21T11:06:13;100670.91;;;10.30;99.89
4576;BME280;2300;51.874;8.430;2023-03-21T11:08:44;100676.63;;;10.29;100.00
4576;BME280;2300;51.874;8.430;2023-03-21T11:11:19;100673.69;;;10.42;100.00
4576;BME280;2300;51.874;8.430;2023-03-21T11:13:55;100673.47;;;10.43;100.00
4576;BME280;2300;51.874;8.430;2023-03-21T11:16:24;100669.22;;;10.59;100.00
4576;BME280;2300;51.874;8.430;2023-03-21T11:18:56;100666.19;;;10.67;100.00
4576;BME280;2300;51.874;8.430;2023-03-21T11:21:23;100663.22;;;10.80;99.96
4576;BME280;2300;51.874;8.430;2023-03-21T11:23:55;100644.00;;;10.80;100.00
4576;BME280;2300;51.874;8.430;2023-03-21T11:26:26;100665.25;;;10.85;99.74
4576;BME280;2300;51.874;8.430;2023-03-21T11:28:55;100651.22;;;10.63;99.48
4576;BME280;2300;51.874;8.430;2023-03-21T11:31:22;100655.06;;;10.74;99.53
4576;BME280;2300;51.874;8.430;2023-03-21T11:34:05;100661.41;;;10.74;100.00
4576;BME280;2300;51.874;8.430;2023-03-21T11:36:33;100660.63;;;10.56;100.00
4576;BME280;2300;51.874;8.430;2023-03-21T11:39:18;100655.59;;;10.53;99.72
4576;BME280;2300;51.874;8.430;2023-03-21T11:41:50;100650.72;;;10.55;100.00
4576;BME280;2300;51.874;8.430;2023-03-21T11:44:31;100617.97;;;10.41;100.00
4576;BME280;2300;51.874;8.430;2023-03-21T11:46:58;100642.97;;;10.52;100.00
4576;BME280;2300;51.874;8.430;2023-03-21T11:49:25;100640.22;;;10.63;100.00
4576;BME280;2300;51.874;8.430;2023-03-21T11:52:19;100631.19;;;10.74;99.38
4576;BME280;2300;51.874;8.430;2023-03-21T11:55:03;100630.88;;;10.53;100.00
4576;BME280;2300;51.874;8.430;2023-03-21T11:57:37;100632.75;;;10.70;100.00
4576;BME280;2300;51.874;8.430;2023-03-21T12:00:12;100628.56;;;10.79;100.00
4576;BME280;2300;51.874;8.430;2023-03-21T12:03:06;100613.16;;;10.78;100.00
4576;BME280;2300;51.874;8.430;2023-03-21T12:05:41;100619.50;;;10.79;100.00
4576;BME280;2300;51.874;8.430;2023-03-21T12:08:21;100613.91;;;10.85;100.00
4576;BME280;2300;51.874;8.430;2023-03-21T12:10:58;100595.75;;;10.84;100.00
4576;BME280;2300;51.874;8.430;2023-03-21T12:13:36;100609.97;;;10.81;100.00
4576;BME280;2300;51.874;8.430;2023-03-21T12:16:18;100585.81;;;10.72;100.00
4576;BME280;2300;51.874;8.430;2023-03-21T12:19:12;100591.91;;;10.62;100.00
4576;BME280;2300;51.874;8.430;2023-03-21T12:21:47;100595.47;;;10.74;100.00
4576;BME280;2300;51.874;8.430;2023-03-21T12:24:19;100582.59;;;10.75;100.00
4576;BME280;2300;51.874;8.430;2023-03-21T12:26:55;100587.28;;;10.86;100.00
4576;BME280;2300;51.874;8.430;2023-03-21T12:29:44;100584.66;;;10.91;100.00
4576;BME280;2300;51.874;8.430;2023-03-21T12:32:22;100577.22;;;10.80;100.00
4576;BME280;2300;51.874;8.430;2023-03-21T12:35:13;100574.97;;;10.77;100.00
4576;BME280;2300;51.874;8.430;2023-03-21T12:37:50;100579.88;;;10.98;100.00
4576;BME280;2300;51.874;8.430;2023-03-21T12:40:28;100573.41;;;11.04;100.00
4576;BME280;2300;51.874;8.430;2023-03-21T12:43:27;100558.38;;;11.18;100.00
4576;BME280;2300;51.874;8.430;2023-03-21T12:45:57;100571.88;;;11.43;100.00
4576;BME280;2300;51.874;8.430;2023-03-21T12:48:32;100561.00;;;11.37;99.56
4576;BME280;2300;51.874;8.430;2023-03-21T12:51:03;100562.19;;;11.41;99.40
4576;BME280;2300;51.874;8.430;2023-03-21T12:53:41;100559.56;;;11.22;98.80
4576;BME280;2300;51.874;8.430;2023-03-21T12:56:14;100559.81;;;11.21;99.24
4576;BME280;2300;51.874;8.430;2023-03-21T12:58:48;100560.19;;;11.13;99.07
4576;BME280;2300;51.874;8.430;2023-03-21T13:01:20;100564.47;;;11.44;99.91
4576;BME280;2300;51.874;8.430;2023-03-21T13:03:50;100570.41;;;11.52;98.19
4576;BME280;2300;51.874;8.430;2023-03-21T13:06:19;100564.56;;;11.60;98.28
4576;BME280;2300;51.874;8.430;2023-03-21T13:08:51;100558.09;;;11.55;98.28
4576;BME280;2300;51.874;8.430;2023-03-21T13:11:23;100556.44;;;11.54;97.88
4576;BME280;2300;51.874;8.430;2023-03-21T13:13:58;100548.53;;;11.57;98.65
4576;BME280;2300;51.874;8.430;2023-03-21T13:16:31;100545.88;;;11.74;97.75
4576;BME280;2300;51.874;8.430;2023-03-21T13:19:07;100543.63;;;11.59;98.18
4576;BME280;2300;51.874;8.430;2023-03-21T13:21:42;100534.19;;;11.67;98.20
4576;BME280;2300;51.874;8.430;2023-03-21T13:24:24;100534.66;;;12.04;97.80
4576;BME280;2300;51.874;8.430;2023-03-21T13:26:56;100535.19;;;11.89;96.67
4576;BME280;2300;51.874;8.430;2023-03-21T13:29:28;100526.59;;;11.86;96.59
4576;BME280;2300;51.874;8.430;2023-03-21T13:32:05;100531.31;;;12.02;96.37
4576;BME280;2300;51.874;8.430;2023-03-21T13:34:32;100516.81;;;12.06;95.74